| time (UTC) | temp F | wind direction | speed MPH | gust MPH | rain 1hr in | rain 24hr in | rain mn in | humidity % | barometer mb |
| 20260510212517 | 94 | 158 | 13.0 | 22.0 | 0.00 | 0.00 | 0.00 | 34 | 1010.7 |
| 20260510211517 | 94 | 135 | 12.0 | 23.0 | 0.00 | 0.00 | 0.00 | 36 | 1010.4 |
| 20260510210517 | 94 | 158 | 15.0 | 23.0 | 0.00 | 0.00 | 0.00 | 37 | 1010.4 |
| 20260510205518 | 94 | 203 | 12.0 | 22.0 | 0.00 | 0.00 | 0.00 | 36 | 1010.4 |
| 20260510204517 | 95 | 158 | 13.0 | 26.0 | 0.00 | 0.00 | 0.00 | 37 | 1010.7 |
| 20260510203517 | 94 | 158 | 16.0 | 24.0 | 0.00 | 0.00 | 0.00 | 37 | 1010.7 |
| 20260510202517 | 94 | 158 | 12.0 | 18.0 | 0.00 | 0.00 | 0.00 | 38 | 1011.0 |
| 20260510201517 | 94 | 180 | 9.0 | 17.0 | 0.00 | 0.00 | 0.00 | 39 | 1011.4 |
| 20260510200517 | 94 | 135 | 12.0 | 17.0 | 0.00 | 0.00 | 0.00 | 41 | 1011.6 |
| 20260510195517 | 93 | 203 | 10.0 | 21.0 | 0.00 | 0.00 | 0.00 | 42 | 1011.5 |
| 20260510194517 | 93 | 158 | 11.0 | 19.0 | 0.00 | 0.00 | 0.00 | 41 | 1011.8 |
| 20260510193517 | 93 | 135 | 11.0 | 19.0 | 0.00 | 0.00 | 0.00 | 42 | 1011.9 |
| 20260510192518 | 93 | 158 | 12.0 | 22.0 | 0.00 | 0.00 | 0.00 | 43 | 1012.0 |
| 20260510191517 | 93 | 180 | 7.0 | 15.0 | 0.00 | 0.00 | 0.00 | 41 | 1012.1 |
| 20260510190517 | 92 | 135 | 9.0 | 14.0 | 0.00 | 0.00 | 0.00 | 42 | 1012.2 |
| 20260510185517 | 92 | 180 | 10.0 | 16.0 | 0.00 | 0.00 | 0.00 | 44 | 1012.3 |
| 20260510184517 | 91 | 180 | 6.0 | 11.0 | 0.00 | 0.00 | 0.00 | 46 | 1012.6 |
| 20260510183517 | 91 | 158 | 11.0 | 20.0 | 0.00 | 0.00 | 0.00 | 46 | 1012.7 |
| 20260510182517 | 90 | 158 | 10.0 | 17.0 | 0.00 | 0.00 | 0.00 | 47 | 1012.8 |
| 20260510181517 | 90 | 158 | 10.0 | 19.0 | 0.00 | 0.00 | 0.00 | 48 | 1012.9 |
| 20260510180517 | 89 | 180 | 9.0 | 17.0 | 0.00 | 0.00 | 0.00 | 49 | 1012.9 |
| 20260510175517 | 89 | 135 | 9.0 | 14.0 | 0.00 | 0.00 | 0.00 | 49 | 1012.8 |
| 20260510174518 | 90 | 180 | 9.0 | 18.0 | 0.00 | 0.00 | 0.00 | 50 | 1013.1 |
| 20260510173517 | 89 | 180 | 11.0 | 20.0 | 0.00 | 0.00 | 0.00 | 50 | 1012.8 |
| 20260510172517 | 87 | 158 | 10.0 | 16.0 | 0.00 | 0.00 | 0.00 | 52 | 1013.0 |
| 20260510171517 | 88 | 180 | 10.0 | 22.0 | 0.00 | 0.00 | 0.00 | 52 | 1013.0 |
| 20260510170517 | 88 | 135 | 9.0 | 14.0 | 0.00 | 0.00 | 0.00 | 52 | 1013.2 |
| 20260510165517 | 86 | 158 | 10.0 | 18.0 | 0.00 | 0.00 | 0.00 | 56 | 1013.3 |
| 20260510164517 | 85 | 158 | 11.0 | 19.0 | 0.00 | 0.00 | 0.00 | 55 | 1012.9 |
| 20260510163517 | 87 | 158 | 11.0 | 21.0 | 0.00 | 0.00 | 0.00 | 54 | 1013.2 |
| 20260510162517 | 87 | 135 | 9.0 | 18.0 | 0.00 | 0.00 | 0.00 | 56 | 1013.2 |
| 20260510161517 | 85 | 180 | 8.0 | 14.0 | 0.00 | 0.00 | 0.00 | 57 | 1013.0 |
| 20260510160517 | 83 | 158 | 9.0 | 14.0 | 0.00 | 0.00 | 0.00 | 60 | 1013.1 |
| 20260510155517 | 84 | 158 | 5.0 | 10.0 | 0.00 | 0.00 | 0.00 | 61 | 1013.5 |
| 20260510154517 | 83 | 180 | 6.0 | 12.0 | 0.00 | 0.00 | 0.00 | 62 | 1013.0 |
| 20260510153517 | 81 | 135 | 7.0 | 11.0 | 0.00 | 0.00 | 0.00 | 63 | 1013.3 |
| 20260510152517 | 81 | 158 | 8.0 | 14.0 | 0.00 | 0.00 | 0.00 | 65 | 1013.2 |
| 20260510151517 | 81 | 158 | 8.0 | 15.0 | 0.00 | 0.00 | 0.00 | 66 | 1012.9 |
| 20260510150517 | 80 | 135 | 6.0 | 12.0 | 0.00 | 0.00 | 0.00 | 68 | 1013.2 |
| 20260510145517 | 79 | 180 | 6.0 | 11.0 | 0.00 | 0.00 | 0.00 | 69 | 1012.7 |
| 20260510144517 | 78 | 203 | 11.0 | 18.0 | 0.00 | 0.00 | 0.00 | 70 | 1011.9 |
| 20260510143517 | 77 | 203 | 12.0 | 20.0 | 0.00 | 0.00 | 0.00 | 72 | 1011.7 |
| 20260510142518 | 78 | 180 | 12.0 | 18.0 | 0.00 | 0.00 | 0.00 | 71 | 1011.8 |
| 20260510141518 | 77 | 203 | 12.0 | 20.0 | 0.00 | 0.00 | 0.00 | 72 | 1011.6 |
| 20260510140517 | 76 | 203 | 10.0 | 16.0 | 0.00 | 0.00 | 0.00 | 75 | 1011.6 |
| 20260510135517 | 76 | 203 | 11.0 | 21.0 | 0.00 | 0.00 | 0.00 | 76 | 1011.7 |
| 20260510134517 | 75 | 203 | 11.0 | 19.0 | 0.00 | 0.00 | 0.00 | 78 | 1011.8 |
| 20260510133518 | 74 | 203 | 13.0 | 22.0 | 0.00 | 0.00 | 0.00 | 78 | 1011.7 |
| 20260510132517 | 73 | 203 | 11.0 | 19.0 | 0.00 | 0.00 | 0.00 | 79 | 1011.9 |
| 20260510131517 | 73 | 203 | 14.0 | 23.0 | 0.00 | 0.00 | 0.00 | 80 | 1011.7 |
| 20260510130517 | 72 | 203 | 13.0 | 22.0 | 0.00 | 0.00 | 0.00 | 80 | 1011.6 |
| 20260510125517 | 72 | 180 | 14.0 | 23.0 | 0.00 | 0.00 | 0.00 | 80 | 1011.5 |
| 20260510124517 | 71 | 203 | 14.0 | 23.0 | 0.00 | 0.00 | 0.00 | 81 | 1011.5 |
| 20260510123517 | 71 | 203 | 11.0 | 23.0 | 0.00 | 0.00 | 0.00 | 81 | 1011.4 |
| 20260510122517 | 70 | 203 | 10.0 | 19.0 | 0.00 | 0.00 | 0.00 | 81 | 1011.1 |
| 20260510121517 | 70 | 203 | 11.0 | 19.0 | 0.00 | 0.00 | 0.00 | 81 | 1011.1 |
| 20260510120517 | 70 | 203 | 11.0 | 17.0 | 0.00 | 0.00 | 0.00 | 80 | 1011.0 |
| 20260510115517 | 70 | 203 | 14.0 | 19.0 | 0.00 | 0.00 | 0.00 | 80 | 1011.0 |
| 20260510114517 | 70 | 203 | 12.0 | 20.0 | 0.00 | 0.00 | 0.00 | 80 | 1010.8 |
| 20260510113517 | 70 | 203 | 12.0 | 19.0 | 0.00 | 0.00 | 0.00 | 80 | 1010.9 |
| 20260510112521 | 70 | 203 | 12.0 | 16.0 | 0.00 | 0.00 | 0.00 | 80 | 1010.9 |
| 20260510111521 | 70 | 203 | 12.0 | 20.0 | 0.00 | 0.00 | 0.00 | 79 | 1011.0 |
| 20260510110521 | 70 | 203 | 10.0 | 15.0 | 0.00 | 0.00 | 0.00 | 79 | 1010.9 |
| 20260510105517 | 70 | 203 | 11.0 | 17.0 | 0.00 | 0.00 | 0.00 | 79 | 1010.8 |
| 20260510104517 | 70 | 203 | 9.0 | 14.0 | 0.00 | 0.00 | 0.00 | 79 | 1010.8 |
| 20260510103517 | 70 | 203 | 8.0 | 13.0 | 0.00 | 0.00 | 0.00 | 78 | 1010.8 |
| 20260510102517 | 70 | 203 | 7.0 | 17.0 | 0.00 | 0.00 | 0.00 | 78 | 1010.8 |
| 20260510101518 | 71 | 203 | 11.0 | 19.0 | 0.00 | 0.00 | 0.00 | 77 | 1010.7 |
| 20260510100517 | 71 | 203 | 10.0 | 14.0 | 0.00 | 0.00 | 0.00 | 76 | 1010.7 |
| 20260510095517 | 72 | 180 | 9.0 | 14.0 | 0.00 | 0.00 | 0.00 | 75 | 1010.7 |
| 20260510094518 | 72 | 203 | 7.0 | 11.0 | 0.00 | 0.00 | 0.00 | 75 | 1010.8 |
| 20260510093517 | 72 | 203 | 10.0 | 16.0 | 0.00 | 0.00 | 0.00 | 75 | 1010.7 |
| 20260510092517 | 71 | 180 | 5.0 | 9.0 | 0.00 | 0.00 | 0.00 | 75 | 1010.4 |
| 20260510091517 | 72 | 203 | 10.0 | 14.0 | 0.00 | 0.00 | 0.00 | 75 | 1010.3 |
| 20260510090517 | 72 | 203 | 9.0 | 15.0 | 0.00 | 0.00 | 0.00 | 75 | 1010.3 |
| 20260510085517 | 72 | 203 | 10.0 | 16.0 | 0.00 | 0.00 | 0.00 | 75 | 1010.3 |
| 20260510084517 | 72 | 180 | 9.0 | 17.0 | 0.00 | 0.00 | 0.00 | 74 | 1010.4 |
| 20260510083518 | 72 | 203 | 10.0 | 17.0 | 0.00 | 0.00 | 0.00 | 74 | 1010.4 |
| 20260510083017 | 72 | 203 | 10.0 | 16.0 | 0.00 | 0.00 | 0.00 | 74 | 1010.2 |
| 20260510082017 | 72 | 203 | 10.0 | 13.0 | 0.00 | 0.00 | 0.00 | 74 | 1010.2 |
| 20260510081017 | 72 | 203 | 9.0 | 11.0 | 0.00 | 0.00 | 0.00 | 73 | 1010.4 |
| 20260510080017 | 72 | 180 | 7.0 | 11.0 | 0.00 | 0.00 | 0.00 | 74 | 1010.5 |
| 20260510075018 | 71 | 180 | 6.0 | 11.0 | 0.00 | 0.00 | 0.00 | 75 | 1010.5 |
| 20260510074017 | 69 | 180 | 5.0 | 10.0 | 0.00 | 0.00 | 0.00 | 77 | 1010.4 |
| 20260510073017 | 67 | 180 | 3.0 | 6.0 | 0.00 | 0.00 | 0.00 | 79 | 1010.2 |
| 20260510072017 | 67 | 158 | 4.0 | 5.0 | 0.00 | 0.00 | 0.00 | 80 | 1010.2 |
| 20260510071017 | 67 | 180 | 3.0 | 4.0 | 0.00 | 0.00 | 0.00 | 79 | 1010.3 |
| 20260510070017 | 68 | 180 | 3.0 | 7.0 | 0.00 | 0.00 | 0.00 | 77 | 1010.2 |
| 20260510065018 | 69 | 203 | 5.0 | 7.0 | 0.00 | 0.00 | 0.00 | 77 | 1010.2 |
| 20260510064018 | 69 | 180 | 3.0 | 5.0 | 0.00 | 0.00 | 0.00 | 77 | 1010.5 |
| 20260510063017 | 69 | 180 | 3.0 | 5.0 | 0.00 | 0.00 | 0.00 | 77 | 1010.6 |
| 20260510062017 | 69 | 180 | 3.0 | 7.0 | 0.00 | 0.00 | 0.00 | 76 | 1010.6 |
| 20260510061018 | 70 | 180 | 3.0 | 6.0 | 0.00 | 0.00 | 0.00 | 76 | 1010.7 |
| 20260510060017 | 70 | 180 | 3.0 | 6.0 | 0.00 | 0.00 | 0.00 | 76 | 1010.6 |
| 20260510055017 | 70 | 180 | 4.0 | 7.0 | 0.00 | 0.00 | 0.00 | 75 | 1010.7 |
| 20260510054017 | 70 | 180 | 6.0 | 8.0 | 0.00 | 0.00 | 0.00 | 75 | 1010.6 |
| 20260510053017 | 70 | 203 | 6.0 | 8.0 | 0.00 | 0.00 | 0.00 | 75 | 1010.4 |
| 20260510052017 | 70 | 180 | 5.0 | 9.0 | 0.00 | 0.00 | 0.00 | 75 | 1010.5 |
| 20260510051017 | 70 | 180 | 4.0 | 6.0 | 0.00 | 0.00 | 0.00 | 75 | 1010.5 |
| 20260510050017 | 71 | 180 | 4.0 | 7.0 | 0.00 | 0.00 | 0.00 | 74 | 1010.5 |
| 20260510045018 | 71 | 203 | 6.0 | 8.0 | 0.00 | 0.00 | 0.00 | 73 | 1010.6 |
| 20260510044018 | 72 | 180 | 3.0 | 6.0 | 0.00 | 0.00 | 0.00 | 72 | 1010.7 |
| 20260510043017 | 72 | 180 | 4.0 | 6.0 | 0.00 | 0.00 | 0.00 | 72 | 1010.4 |
| 20260510042017 | 72 | 180 | 4.0 | 6.0 | 0.00 | 0.00 | 0.00 | 73 | 1010.5 |
| 20260510041017 | 72 | 180 | 3.0 | 5.0 | 0.00 | 0.00 | 0.00 | 73 | 1010.4 |
| 20260510040018 | 72 | 203 | 4.0 | 7.0 | 0.00 | 0.00 | 0.00 | 72 | 1010.4 |
| 20260510035017 | 73 | 203 | 3.0 | 5.0 | 0.00 | 0.00 | 0.00 | 70 | 1010.3 |
| 20260510034017 | 73 | 180 | 2.0 | 4.0 | 0.00 | 0.00 | 0.00 | 68 | 1010.3 |
| 20260510033017 | 74 | 180 | 2.0 | 4.0 | 0.00 | 0.00 | 0.00 | 67 | 1010.2 |
| 20260510032017 | 75 | 180 | 3.0 | 4.0 | 0.00 | 0.00 | 0.00 | 65 | 1010.2 |
| 20260510031018 | 76 | 180 | 3.0 | 5.0 | 0.00 | 0.00 | 0.00 | 64 | 1010.3 |
| 20260510030018 | 76 | 180 | 3.0 | 5.0 | 0.00 | 0.00 | 0.00 | 64 | 1010.0 |
| 20260510025018 | 77 | 180 | 3.0 | 5.0 | 0.00 | 0.00 | 0.00 | 62 | 1010.0 |
| 20260510024017 | 77 | 158 | 4.0 | 6.0 | 0.00 | 0.00 | 0.00 | 61 | 1009.8 |
| 20260510023017 | 78 | 158 | 4.0 | 6.0 | 0.00 | 0.00 | 0.00 | 59 | 1009.7 |
| 20260510022017 | 79 | 158 | 5.0 | 8.0 | 0.00 | 0.00 | 0.00 | 57 | 1009.7 |
| 20260510021018 | 80 | 158 | 5.0 | 7.0 | 0.00 | 0.00 | 0.00 | 55 | 1009.5 |
| 20260510020017 | 81 | 158 | 5.0 | 7.0 | 0.00 | 0.00 | 0.00 | 54 | 1009.4 |
| 20260510015017 | 81 | 158 | 4.0 | 6.0 | 0.00 | 0.00 | 0.00 | 51 | 1009.3 |
| 20260510014017 | 83 | 158 | 4.0 | 6.0 | 0.00 | 0.00 | 0.00 | 48 | 1009.3 |
| 20260510013017 | 84 | 135 | 3.0 | 4.0 | 0.00 | 0.00 | 0.00 | 47 | 1009.2 |
| 20260510012017 | 85 | 158 | 3.0 | 4.0 | 0.00 | 0.00 | 0.00 | 44 | 1009.1 |
| 20260510011017 | 86 | 158 | 3.0 | 5.0 | 0.00 | 0.00 | 0.00 | 42 | 1009.0 |
| 20260510010017 | 87 | 158 | 4.0 | 7.0 | 0.00 | 0.00 | 0.00 | 40 | 1008.8 |
| 20260510005017 | 88 | 158 | 6.0 | 9.0 | 0.00 | 0.00 | 0.00 | 39 | 1008.9 |
| 20260510004017 | 89 | 180 | 4.0 | 6.0 | 0.00 | 0.00 | 0.00 | 37 | 1008.8 |
| 20260510003017 | 89 | 180 | 5.0 | 8.0 | 0.00 | 0.00 | 0.00 | 38 | 1008.8 |
| 20260510002017 | 89 | 158 | 5.0 | 9.0 | 0.00 | 0.00 | 0.00 | 38 | 1008.8 |
| 20260510001017 | 89 | 158 | 5.0 | 9.0 | 0.00 | 0.00 | 0.00 | 38 | 1008.8 |
| 20260510000018 | 90 | 158 | 6.0 | 13.0 | 0.00 | 0.00 | 0.00 | 35 | 1008.7 |
| 20260509235017 | 90 | 158 | 6.0 | 11.0 | 0.00 | 0.00 | 0.00 | 35 | 1008.7 |
| 20260509234018 | 89 | 180 | 6.0 | 12.0 | 0.00 | 0.00 | 0.00 | 37 | 1008.7 |
| 20260509233017 | 90 | 158 | 5.0 | 9.0 | 0.00 | 0.00 | 0.00 | 35 | 1008.8 |
| 20260509232017 | 90 | 158 | 6.0 | 15.0 | 0.00 | 0.00 | 0.00 | 34 | 1008.9 |
| 20260509231017 | 90 | 158 | 4.0 | 8.0 | 0.00 | 0.00 | 0.00 | 35 | 1009.0 |
| 20260509230017 | 90 | 158 | 4.0 | 7.0 | 0.00 | 0.00 | 0.00 | 34 | 1009.0 |
| 20260509225021 | 90 | 180 | 3.0 | 8.0 | 0.00 | 0.00 | 0.00 | 38 | 1009.0 |
| 20260509224021 | 90 | 203 | 6.0 | 12.0 | 0.00 | 0.00 | 0.00 | 40 | 1009.1 |
| 20260509223021 | 90 | 158 | 3.0 | 8.0 | 0.00 | 0.00 | 0.00 | 38 | 1009.0 |
| 20260509222017 | 90 | 180 | 5.0 | 9.0 | 0.00 | 0.00 | 0.00 | 37 | 1009.1 |
| 20260509221018 | 90 | 203 | 7.0 | 12.0 | 0.00 | 0.00 | 0.00 | 36 | 1009.2 |
| 20260509220017 | 90 | 180 | 6.0 | 12.0 | 0.00 | 0.00 | 0.00 | 39 | 1009.5 |
| 20260509215018 | 90 | 203 | 6.0 | 10.0 | 0.00 | 0.00 | 0.00 | 42 | 1009.5 |
| 20260509214017 | 90 | 248 | 5.0 | 8.0 | 0.00 | 0.00 | 0.00 | 42 | 1009.8 |